nestle-marktplatz.de alexa rank chart, nestle-marktplatz.de alexa rank daily changes

nestle-marktplatz.de alexa rank chart, nestle-marktplatz.de alexa rank daily changes

nestle-marktplatz.de
Actual rank:
276 564

RANK HISTORY

Date Rank Diff
2017/01/22 276 564 -25 361
2017/01/21 301 925 -52 508
2017/01/20 354 433 +5 186
2017/01/19 349 247 +7 038
2017/01/18 342 209 -21 468
2017/01/17 363 677 -4 835
2017/01/16 368 512 +10 323
2017/01/15 358 189 +5 060
2017/01/14 353 129 +4 253
2017/01/13 348 876 +5 461
2017/01/12 343 415 +780
2017/01/11 342 635 +22 543
2017/01/10 320 092 +37 060
2017/01/09 283 032 +6 348
2017/01/08 276 684 +194
2017/01/07 276 490 +4 787
2017/01/06 271 703 -5 221
2017/01/05 276 924 -4 730
2017/01/04 281 654 -68
2017/01/03 281 722 +7 876
2017/01/02 273 846 +3 619
2017/01/01 270 227 -2 303
2016/12/31 272 530 +12 475
2016/12/30 260 055 +10 837
2016/12/29 249 218 +3 921
2016/12/28 245 297 +9 902
2016/12/27 235 395 +7 982
2016/12/26 227 413 +13 389
2016/12/25 214 024 +6 861
2016/12/24 207 163 +6 194
2016/12/23 200 969 +1 645
2016/12/22 199 324 +2 842
2016/12/21 196 482 +205
2016/12/20 196 277 +3 516
2016/12/19 192 761 -207
2016/12/18 192 968 +9 919
2016/12/17 183 049 +5 838
2016/12/16 177 211 +1 268
2016/12/15 175 943 +6 566
2016/12/14 169 377 +4 770
2016/12/13 164 607 +411
2016/12/12 164 196 -561
2016/12/11 164 757 +2 059
2016/12/10 162 698 -7 592
2016/12/09 170 290 +4 111
2016/12/08 166 179 +4 335
2016/12/07 161 844 +4 163
2016/12/06 157 681 +5 118
2016/12/05 152 563 +5 468
2016/12/04 147 095 +4 404
2016/12/02 142 691 +2 581
2016/12/01 140 110 +4 340
2016/11/30 135 770 -317
2016/11/29 136 087 +2 318
2016/11/28 133 769 +3 647
2016/11/27 130 122 +1 601
2016/11/26 128 521 +4 741
2016/11/25 123 780 +8 017
2016/11/24 115 763 -2 870
2016/11/23 118 633

WIDGET FOR YOUR SITE

DOMAINS WITH THE NEAREST RANK

Domain Rank
etkilipratikingilizce.com 276 559
mysonata.ru 276 560
americanalpineclub.org 276 561
windows8ny.com 276 562
visipics.info 276 563
nestle-marktplatz.de 276 564
renoback.com 276 565
junglam.com 276 566
special-prono.com 276 567
greylock.org 276 568
searchwos.com 276 569

DOMAINS WITH THE NEAREST RANK BY TLD .de

Domain Rank
lbv.de 276 335
tempodates.de 276 424
augusta-bank.de 276 466
testspiel.de 276 509
kraeuter-verzeichnis.de 276 551
nestle-marktplatz.de 276 564
zentrada.de 276 682
express-kniga.de 276 737
goip.de 276 782
globe-flight.de 276 784
fischer.de 276 807